createdAt,value
2017-11-01T00:02:11.469Z,2.80
2017-11-01T00:04:39.035Z,2.90
2017-11-01T00:07:06.573Z,2.90
2017-11-01T00:09:34.511Z,2.90
2017-11-01T00:12:02.076Z,2.90
2017-11-01T00:14:29.607Z,2.90
2017-11-01T00:16:57.137Z,2.90
2017-11-01T00:19:24.735Z,2.90
2017-11-01T00:21:52.262Z,2.90
2017-11-01T00:24:19.800Z,2.90
2017-11-01T00:26:47.364Z,2.90
2017-11-01T00:29:17.183Z,2.90
2017-11-01T00:31:44.763Z,2.90
2017-11-01T00:34:12.319Z,2.80
2017-11-01T00:36:39.866Z,2.80
2017-11-01T00:39:07.571Z,2.80
2017-11-01T00:41:35.168Z,2.90
2017-11-01T00:44:03.480Z,2.90
2017-11-01T00:46:31.061Z,2.90
2017-11-01T00:48:59.165Z,2.90
2017-11-01T00:51:27.598Z,2.90
2017-11-01T00:53:55.471Z,2.90
2017-11-01T00:56:23.040Z,2.90
2017-11-01T00:58:50.633Z,3.00
2017-11-01T01:01:18.187Z,2.90
2017-11-01T01:03:45.784Z,3.00
2017-11-01T01:06:14.560Z,3.00
2017-11-01T01:08:42.099Z,3.00
2017-11-01T01:11:10.718Z,3.10
2017-11-01T01:13:38.259Z,3.10
2017-11-01T01:16:06.568Z,3.10
2017-11-01T01:18:34.128Z,3.10
2017-11-01T01:21:01.664Z,3.10
2017-11-01T01:23:29.196Z,3.20
2017-11-01T01:25:56.783Z,3.20
2017-11-01T01:28:24.320Z,3.30
2017-11-01T01:30:51.856Z,3.20
2017-11-01T01:33:19.423Z,3.20
2017-11-01T01:35:46.964Z,3.20
2017-11-01T01:38:16.249Z,3.00
2017-11-01T01:40:43.823Z,3.00
2017-11-01T01:43:11.363Z,2.90
2017-11-01T01:45:38.907Z,2.90
2017-11-01T01:48:06.493Z,3.00
2017-11-01T01:50:34.028Z,3.10
2017-11-01T01:53:01.559Z,3.10
2017-11-01T01:55:29.133Z,3.10
2017-11-01T01:57:57.432Z,3.30
2017-11-01T02:00:24.967Z,3.30
2017-11-01T02:02:52.523Z,3.30
2017-11-01T02:05:20.052Z,3.40
2017-11-01T02:07:47.580Z,3.40
2017-11-01T02:10:16.506Z,3.40
2017-11-01T02:12:44.176Z,3.40
2017-11-01T02:15:11.712Z,3.50
2017-11-01T02:17:39.279Z,3.50
2017-11-01T02:20:06.835Z,3.50
2017-11-01T02:22:34.374Z,3.60
2017-11-01T02:25:01.935Z,3.60
2017-11-01T02:27:29.477Z,3.60
2017-11-01T02:29:57.012Z,3.60
2017-11-01T02:32:24.591Z,3.70
2017-11-01T02:34:52.116Z,3.70
2017-11-01T02:37:19.656Z,3.80
2017-11-01T02:39:47.210Z,3.80
2017-11-01T02:42:16.390Z,3.80
2017-11-01T02:44:43.925Z,3.70
2017-11-01T02:47:11.496Z,3.70
2017-11-01T02:49:39.027Z,3.70
2017-11-01T02:52:06.560Z,3.80
2017-11-01T02:54:34.186Z,3.70
2017-11-01T02:57:01.720Z,3.60
2017-11-01T02:59:30.015Z,3.70
2017-11-01T03:01:57.566Z,3.60
2017-11-01T03:04:25.099Z,3.80
2017-11-01T03:06:52.631Z,3.80
2017-11-01T03:09:20.185Z,3.90
2017-11-01T03:11:47.725Z,3.80
2017-11-01T03:14:16.929Z,3.90
2017-11-01T03:16:44.522Z,3.90
2017-11-01T03:19:12.059Z,3.90
2017-11-01T03:21:39.592Z,3.90
2017-11-01T03:24:07.148Z,3.90
2017-11-01T03:26:34.679Z,4.00
2017-11-01T03:29:02.216Z,4.00
2017-11-01T03:31:29.807Z,4.10
2017-11-01T03:33:58.104Z,4.20
2017-11-01T03:36:25.638Z,4.10
2017-11-01T03:38:53.996Z,4.10
2017-11-01T03:41:21.558Z,4.00
2017-11-01T03:43:49.091Z,4.00
2017-11-01T03:46:16.656Z,4.00
2017-11-01T03:48:44.188Z,4.00
2017-11-01T03:51:11.723Z,3.90
2017-11-01T03:53:39.464Z,4.00
2017-11-01T03:56:07.002Z,4.10
2017-11-01T03:58:34.526Z,4.10
2017-11-01T04:01:02.108Z,4.10
2017-11-01T04:03:29.639Z,4.20
2017-11-01T04:05:57.167Z,4.30
2017-11-01T04:08:24.728Z,4.30
2017-11-01T04:10:52.259Z,4.40
2017-11-01T04:13:19.788Z,4.40
2017-11-01T04:15:48.471Z,4.40
2017-11-01T04:18:20.971Z,4.40
2017-11-01T04:20:49.471Z,4.40
2017-11-01T04:23:17.007Z,4.50
2017-11-01T04:25:44.564Z,4.50
2017-11-01T04:28:12.137Z,4.40
2017-11-01T04:30:39.664Z,4.50
2017-11-01T04:33:07.200Z,4.50
2017-11-01T04:35:35.518Z,4.60
2017-11-01T04:38:03.067Z,4.60
2017-11-01T04:40:30.600Z,4.60
2017-11-01T04:42:58.188Z,4.60
2017-11-01T04:45:25.723Z,4.60
2017-11-01T04:47:54.015Z,4.60
2017-11-01T04:55:54.095Z,4.50
2017-11-01T04:58:21.628Z,4.50
2017-11-01T05:00:49.160Z,4.60
2017-11-01T05:03:17.507Z,4.60
2017-11-01T05:05:45.045Z,4.60
2017-11-01T05:08:19.084Z,4.60
2017-11-01T05:10:46.618Z,4.60
2017-11-01T05:13:20.548Z,4.60
2017-11-01T05:28:21.926Z,4.40
2017-11-01T05:30:49.585Z,4.40
2017-11-01T05:33:17.221Z,4.40
2017-11-01T05:35:44.862Z,4.50
2017-11-01T05:38:12.409Z,4.50
2017-11-01T05:40:40.225Z,4.60
2017-11-01T05:43:07.807Z,4.60
2017-11-01T05:45:36.337Z,4.70
2017-11-01T05:48:04.364Z,4.70
2017-11-01T05:50:33.463Z,4.80
2017-11-01T05:53:01.016Z,4.80
2017-11-01T05:55:28.549Z,4.80
2017-11-01T05:57:56.078Z,4.90
2017-11-01T06:00:23.640Z,4.80
2017-11-01T06:02:51.203Z,4.80
2017-11-01T06:05:18.725Z,4.90
2017-11-01T06:07:46.459Z,5.00
2017-11-01T06:10:14.608Z,5.00
2017-11-01T06:19:32.339Z,5.10
2017-11-01T06:21:59.946Z,4.90
2017-11-01T06:24:27.564Z,5.00
2017-11-01T06:26:55.473Z,5.10
2017-11-01T06:29:22.996Z,5.10
2017-11-01T06:31:50.520Z,5.20
2017-11-01T06:34:18.083Z,5.30
2017-11-01T06:36:47.278Z,5.40
2017-11-01T06:39:17.207Z,5.50
2017-11-01T06:41:45.622Z,5.50
2017-11-01T06:44:14.399Z,5.50
2017-11-01T06:54:51.988Z,5.50
2017-11-01T06:57:19.523Z,5.50
2017-11-01T06:59:47.047Z,5.50
2017-11-01T07:02:16.528Z,5.60
2017-11-01T07:04:44.060Z,5.70
2017-11-01T07:07:11.604Z,5.80
2017-11-01T07:09:39.976Z,5.90
2017-11-01T07:12:07.544Z,5.90
2017-11-01T07:14:35.077Z,6.10
2017-11-01T07:17:02.692Z,6.10
2017-11-01T07:19:30.217Z,6.20
2017-11-01T07:21:57.780Z,6.30
2017-11-01T07:24:26.089Z,6.50
2017-11-01T07:26:53.619Z,6.50
2017-11-01T07:29:21.648Z,6.60
2017-11-01T07:31:49.969Z,6.60
2017-11-01T07:34:17.568Z,6.60
2017-11-01T07:36:45.092Z,6.60
2017-11-01T07:39:13.593Z,6.60
2017-11-01T07:41:41.128Z,6.60
2017-11-01T07:44:08.674Z,6.60
2017-11-01T07:46:36.537Z,6.60
2017-11-01T07:49:04.075Z,6.50
2017-11-01T07:51:31.603Z,6.50
2017-11-01T07:53:59.158Z,6.50
2017-11-01T07:56:26.697Z,6.60
2017-11-01T07:58:54.255Z,6.70
2017-11-01T08:01:21.835Z,6.70
2017-11-01T08:03:49.392Z,6.80
2017-11-01T08:06:16.954Z,6.80
2017-11-01T08:08:44.530Z,6.90
2017-11-01T08:11:12.056Z,6.90
2017-11-01T08:13:39.589Z,7.00
2017-11-01T08:16:07.956Z,7.00
2017-11-01T08:18:36.295Z,7.10
2017-11-01T08:21:03.831Z,7.10
2017-11-01T08:23:31.411Z,7.30
2017-11-01T08:25:58.934Z,7.50
2017-11-01T08:41:47.000Z,7.60
2017-11-01T08:44:26.388Z,7.80
2017-11-01T08:57:34.011Z,7.80
2017-11-01T09:00:01.542Z,7.60
2017-11-01T09:02:29.071Z,7.70
2017-11-01T09:04:56.887Z,7.90
2017-11-01T09:07:24.470Z,8.00
2017-11-01T09:09:52.012Z,8.10
2017-11-01T09:12:19.770Z,8.00
2017-11-01T09:14:47.323Z,8.10
2017-11-01T09:17:17.264Z,8.40
2017-11-01T09:19:45.668Z,8.50
2017-11-01T09:22:24.345Z,8.40
2017-11-01T09:27:34.595Z,8.40
2017-11-01T09:30:02.147Z,8.20
2017-11-01T09:32:31.230Z,8.20
2017-11-01T09:34:59.583Z,8.20
2017-11-01T09:37:27.112Z,8.20
2017-11-01T09:39:54.657Z,8.20
2017-11-01T09:42:22.340Z,8.40
2017-11-01T09:44:49.875Z,8.50
2017-11-01T09:47:17.406Z,8.50
2017-11-01T09:49:44.979Z,8.70
2017-11-01T09:52:14.301Z,9.00
2017-11-01T09:54:41.831Z,8.90
2017-11-01T09:57:09.415Z,9.00
2017-11-01T09:59:36.991Z,9.10
2017-11-01T10:02:04.520Z,9.30
2017-11-01T10:04:32.130Z,9.40
2017-11-01T10:07:00.459Z,9.70
2017-11-01T10:09:27.996Z,9.70
2017-11-01T10:11:56.353Z,9.50
2017-11-01T10:14:24.766Z,9.60
2017-11-01T10:16:52.315Z,9.60
2017-11-01T10:19:20.164Z,9.90
2017-11-01T10:21:47.720Z,10.20
2017-11-01T10:24:16.441Z,10.30
2017-11-01T10:26:44.811Z,10.70
2017-11-01T10:29:12.448Z,10.70
2017-11-01T10:31:40.076Z,10.90
2017-11-01T10:34:07.632Z,10.90
2017-11-01T10:36:35.253Z,10.90
2017-11-01T10:39:03.564Z,10.80
2017-11-01T10:41:31.364Z,10.80
2017-11-01T10:43:58.927Z,10.80
2017-11-01T10:46:26.478Z,10.80
2017-11-01T10:48:54.035Z,10.90
2017-11-01T10:51:21.804Z,11.20
2017-11-01T10:53:49.512Z,11.60
2017-11-01T10:56:18.288Z,11.70
2017-11-01T10:58:46.614Z,11.80
2017-11-01T11:01:15.467Z,11.70
2017-11-01T11:03:43.450Z,11.50
2017-11-01T11:06:11.255Z,11.60
2017-11-01T11:08:38.867Z,11.70
2017-11-01T11:11:06.432Z,11.90
2017-11-01T11:13:34.755Z,11.70
2017-11-01T11:16:02.288Z,11.60
2017-11-01T11:18:29.908Z,11.70
2017-11-01T11:20:57.439Z,11.70
2017-11-01T11:23:24.982Z,11.70
2017-11-01T11:25:52.561Z,11.70
2017-11-01T11:28:20.096Z,11.70
2017-11-01T11:30:48.387Z,11.70
2017-11-01T11:33:17.512Z,11.70
2017-11-01T11:35:45.882Z,11.60
2017-11-01T11:38:15.364Z,11.50
2017-11-01T11:40:42.940Z,11.40
2017-11-01T11:43:11.150Z,11.30
2017-11-01T11:45:39.229Z,11.20
2017-11-01T11:48:08.806Z,10.90
2017-11-01T11:50:37.192Z,10.80
2017-11-01T11:53:04.776Z,10.80
2017-11-01T11:55:32.396Z,10.70
2017-11-01T11:58:00.209Z,10.60
2017-11-01T12:00:27.861Z,10.70
2017-11-01T12:02:55.502Z,10.80
2017-11-01T12:05:23.047Z,10.90
2017-11-01T12:07:50.578Z,11.00
2017-11-01T12:10:18.165Z,11.00
2017-11-01T12:12:45.768Z,11.10
2017-11-01T12:15:13.719Z,11.20
2017-11-01T12:24:52.140Z,10.80
2017-11-01T12:27:19.683Z,10.80
2017-11-01T12:29:47.248Z,10.80
2017-11-01T12:32:16.292Z,10.70
2017-11-01T12:34:43.823Z,10.70
2017-11-01T12:37:11.356Z,10.60
2017-11-01T12:39:38.923Z,10.70
2017-11-01T12:42:06.460Z,10.70
2017-11-01T12:44:34.771Z,10.70
2017-11-01T12:47:02.732Z,10.60
2017-11-01T12:49:30.280Z,10.60
2017-11-01T12:51:57.844Z,10.70
2017-11-01T12:54:25.435Z,10.80
2017-11-01T12:56:54.285Z,10.70
2017-11-01T12:59:23.104Z,10.50
2017-11-01T13:01:51.317Z,10.50
2017-11-01T13:04:18.851Z,10.40
2017-11-01T13:06:46.396Z,10.40
2017-11-01T13:09:23.538Z,10.30
2017-11-01T13:11:51.896Z,10.30
2017-11-01T13:14:19.459Z,10.30
2017-11-01T13:16:47.085Z,10.30
2017-11-01T13:19:17.190Z,10.30
2017-11-01T13:21:44.796Z,10.30
2017-11-01T13:24:12.401Z,10.40
2017-11-01T13:26:39.935Z,10.30
2017-11-01T13:29:08.260Z,10.30
2017-11-01T13:31:35.820Z,10.30
2017-11-01T13:34:03.391Z,10.30
2017-11-01T13:36:30.940Z,10.40
2017-11-01T13:38:58.529Z,10.40
2017-11-01T13:41:26.075Z,10.50
2017-11-01T13:43:53.714Z,10.60
2017-11-01T13:46:21.430Z,10.50
2017-11-01T13:48:50.321Z,10.40
2017-11-01T13:51:17.856Z,10.40
2017-11-01T13:53:45.499Z,10.50
2017-11-01T13:56:23.583Z,10.60
2017-11-01T14:01:35.477Z,10.70
2017-11-01T14:04:03.105Z,10.70
2017-11-01T14:06:31.475Z,11.00
2017-11-01T14:08:59.168Z,11.00
2017-11-01T14:11:26.785Z,11.10
2017-11-01T14:13:54.311Z,11.10
2017-11-01T14:16:21.921Z,11.20
2017-11-01T14:18:49.563Z,11.20
2017-11-01T14:21:17.215Z,11.30
2017-11-01T14:23:44.791Z,11.40
2017-11-01T14:26:12.436Z,11.50
2017-11-01T14:28:39.972Z,11.50
2017-11-01T14:31:07.731Z,11.60
2017-11-01T14:33:35.368Z,11.60
2017-11-01T14:36:02.912Z,11.50
2017-11-01T14:38:30.463Z,11.50
2017-11-01T14:40:58.102Z,11.40
2017-11-01T14:43:25.659Z,11.30
2017-11-01T14:45:53.324Z,11.30
2017-11-01T14:48:20.986Z,11.40
2017-11-01T14:50:48.952Z,11.40
2017-11-01T14:53:18.003Z,11.40
2017-11-01T14:55:45.589Z,11.30
2017-11-01T14:58:14.549Z,11.30
2017-11-01T15:00:42.143Z,11.20
2017-11-01T15:03:10.481Z,11.10
2017-11-01T15:05:38.060Z,11.10
2017-11-01T15:08:05.683Z,10.80
2017-11-01T15:10:33.991Z,10.70
2017-11-01T15:13:01.534Z,10.70
2017-11-01T15:15:29.111Z,10.70
2017-11-01T15:17:56.643Z,10.70
2017-11-01T15:20:24.368Z,10.70
2017-11-01T15:22:52.029Z,10.70
2017-11-01T15:25:20.523Z,10.70
2017-11-01T15:27:48.068Z,10.70
2017-11-01T15:30:16.609Z,10.70
2017-11-01T15:32:44.252Z,10.70
2017-11-01T15:35:11.788Z,10.70
2017-11-01T15:37:39.713Z,10.70
2017-11-01T15:40:09.156Z,10.70
2017-11-01T15:42:36.776Z,10.70
2017-11-01T15:45:04.347Z,10.80
2017-11-01T15:47:31.979Z,10.70
2017-11-01T15:49:59.630Z,10.70
2017-11-01T15:52:27.334Z,10.70
2017-11-01T15:54:54.880Z,10.60
2017-11-01T15:57:22.439Z,10.60
2017-11-01T15:59:50.013Z,10.50
2017-11-01T16:02:17.549Z,10.50
2017-11-01T16:04:45.084Z,10.40
2017-11-01T16:07:13.604Z,10.40
2017-11-01T16:09:41.168Z,10.30
2017-11-01T16:12:08.708Z,10.20
2017-11-01T16:14:36.518Z,10.20
2017-11-01T16:17:04.085Z,10.10
2017-11-01T16:19:31.740Z,10.00
2017-11-01T16:21:59.309Z,9.80
2017-11-01T16:24:26.913Z,9.70
2017-11-01T16:26:54.492Z,9.70
2017-11-01T16:29:22.078Z,9.50
2017-11-01T16:31:49.672Z,9.50
2017-11-01T16:34:17.213Z,9.40
2017-11-01T16:36:44.836Z,9.30
2017-11-01T16:39:12.480Z,9.20
2017-11-01T16:41:40.073Z,9.30
2017-11-01T16:44:07.677Z,9.10
2017-11-01T16:46:35.480Z,9.00
2017-11-01T16:49:03.780Z,8.90
2017-11-01T16:51:31.336Z,8.90
2017-11-01T16:53:59.279Z,8.80
2017-11-01T16:56:26.879Z,8.80
2017-11-01T16:58:54.458Z,8.70
2017-11-01T17:01:22.000Z,8.60
2017-11-01T17:03:49.536Z,8.60
2017-11-01T17:06:17.095Z,8.60
2017-11-01T17:08:44.631Z,8.60
2017-11-01T17:11:12.158Z,8.50
2017-11-01T17:13:40.356Z,8.50
2017-11-01T17:16:07.892Z,8.40
2017-11-01T17:18:38.475Z,8.40
2017-11-01T17:21:06.053Z,8.40
2017-11-01T17:23:33.588Z,8.30
2017-11-01T17:26:01.888Z,8.20
2017-11-01T17:28:29.475Z,8.30
2017-11-01T17:30:57.014Z,8.20
2017-11-01T17:33:24.691Z,8.20
2017-11-01T17:35:52.247Z,8.20
2017-11-01T17:38:19.984Z,8.10
2017-11-01T17:40:47.550Z,8.20
2017-11-01T17:43:15.947Z,8.20
2017-11-01T17:45:44.503Z,8.10
2017-11-01T17:48:13.107Z,8.10
2017-11-01T17:50:53.104Z,8.10
2017-11-01T17:53:25.612Z,8.10
2017-11-01T17:55:53.267Z,8.00
2017-11-01T17:58:21.887Z,7.90
2017-11-01T18:00:49.468Z,7.90
2017-11-01T18:03:17.207Z,7.80
2017-11-01T18:05:44.803Z,7.80
2017-11-01T18:08:12.328Z,7.80
2017-11-01T18:10:39.912Z,7.70
2017-11-01T18:13:07.488Z,7.60
2017-11-01T18:15:35.024Z,7.50
2017-11-01T18:18:03.170Z,7.50
2017-11-01T18:20:34.316Z,7.40
2017-11-01T18:23:02.039Z,7.30
2017-11-01T18:25:29.654Z,7.30
2017-11-01T18:27:58.034Z,7.40
2017-11-01T18:30:25.698Z,7.30
2017-11-01T18:32:53.381Z,7.30
2017-11-01T18:35:22.189Z,7.20
2017-11-01T18:37:50.570Z,7.10
2017-11-01T18:40:18.129Z,7.10
2017-11-01T18:42:45.719Z,7.10
2017-11-01T18:45:24.484Z,7.00
2017-11-01T18:53:57.732Z,7.00
2017-11-01T18:56:25.528Z,6.80
2017-11-01T18:58:53.839Z,6.70
2017-11-01T19:01:21.523Z,6.70
2017-11-01T19:03:49.191Z,6.70
2017-11-01T19:06:16.839Z,6.70
2017-11-01T19:08:44.447Z,6.70
2017-11-01T19:11:11.978Z,6.70
2017-11-01T19:13:39.632Z,6.60
2017-11-01T19:16:07.184Z,6.70
2017-11-01T19:18:34.771Z,6.70
2017-11-01T19:21:02.533Z,6.60
2017-11-01T19:23:30.164Z,6.60
2017-11-01T19:25:57.704Z,6.60
2017-11-01T19:28:25.244Z,6.60
2017-11-01T19:30:55.966Z,6.60
2017-11-01T19:33:23.519Z,6.50
2017-11-01T19:35:51.116Z,6.50
2017-11-01T19:38:18.671Z,6.50
2017-11-01T19:40:46.214Z,6.50
2017-11-01T19:43:25.753Z,6.50
2017-11-01T19:53:24.084Z,6.20
2017-11-01T19:55:51.607Z,6.20
2017-11-01T19:58:20.335Z,6.10
2017-11-01T20:00:48.008Z,6.10
2017-11-01T20:03:17.252Z,6.10
2017-11-01T20:05:45.552Z,6.10
2017-11-01T20:08:29.885Z,6.00
2017-11-01T20:18:37.500Z,6.10
2017-11-01T20:21:05.029Z,5.80
2017-11-01T20:23:32.604Z,5.80
2017-11-01T20:26:00.174Z,5.80
2017-11-01T20:28:27.709Z,5.80
2017-11-01T20:30:56.116Z,5.90
2017-11-01T20:33:23.699Z,5.90
2017-11-01T20:35:51.223Z,5.90
2017-11-01T20:38:18.760Z,5.90
2017-11-01T20:40:46.487Z,5.90
2017-11-01T20:43:24.586Z,5.90
2017-11-01T20:48:24.669Z,5.80
2017-11-01T20:50:52.226Z,5.80
2017-11-01T20:53:19.886Z,5.80
2017-11-01T20:55:47.561Z,5.70
2017-11-01T20:58:16.401Z,5.70
2017-11-01T21:00:45.048Z,5.70
2017-11-01T21:03:13.548Z,5.70
2017-11-01T21:05:52.082Z,5.80
2017-11-01T21:08:19.703Z,5.80
2017-11-01T21:10:48.768Z,5.80
2017-11-01T21:13:17.297Z,5.80
2017-11-01T21:15:45.867Z,5.80
2017-11-01T21:18:24.988Z,5.80
2017-11-01T21:28:12.570Z,5.80
2017-11-01T21:30:40.212Z,5.50
2017-11-01T21:33:07.840Z,5.40
2017-11-01T21:35:35.780Z,5.40
2017-11-01T21:38:03.360Z,5.50
2017-11-01T21:40:30.959Z,5.50
2017-11-01T21:42:58.565Z,5.50
2017-11-01T21:45:26.881Z,5.50
2017-11-01T21:47:54.487Z,5.50
2017-11-01T21:50:22.099Z,5.50
2017-11-01T21:52:50.412Z,5.50
2017-11-01T21:55:18.040Z,5.50
2017-11-01T21:57:45.642Z,5.50
2017-11-01T22:00:14.700Z,5.40
2017-11-01T22:02:43.288Z,5.40
2017-11-01T22:05:13.513Z,5.30
2017-11-01T22:07:41.133Z,5.30
2017-11-01T22:10:09.113Z,5.30
2017-11-01T22:12:36.748Z,5.30
2017-11-01T22:15:04.279Z,5.30
2017-11-01T22:17:36.216Z,5.30
2017-11-01T22:20:03.872Z,5.30
2017-11-01T22:22:35.198Z,5.20
2017-11-01T22:25:02.894Z,5.20
2017-11-01T22:27:30.472Z,5.20
2017-11-01T22:29:58.050Z,5.20
2017-11-01T22:32:25.599Z,5.20
2017-11-01T22:34:53.169Z,5.20
2017-11-01T22:37:20.691Z,5.20
2017-11-01T22:39:48.986Z,5.20
2017-11-01T22:42:16.575Z,5.10
2017-11-01T22:44:44.154Z,5.20
2017-11-01T22:47:11.795Z,5.20
2017-11-01T22:49:39.441Z,5.20
2017-11-01T22:52:07.056Z,5.10
2017-11-01T22:54:34.596Z,5.10
2017-11-01T22:57:02.196Z,5.10
2017-11-01T22:59:30.493Z,5.00
2017-11-01T23:01:58.059Z,5.00
2017-11-01T23:04:29.173Z,5.10
2017-11-01T23:06:57.543Z,5.00
2017-11-01T23:09:25.846Z,5.00
2017-11-01T23:11:53.551Z,5.00
2017-11-01T23:14:21.083Z,5.10
2017-11-01T23:16:48.652Z,5.00
2017-11-01T23:19:17.260Z,5.00
2017-11-01T23:21:44.791Z,5.00
2017-11-01T23:24:12.364Z,5.00
2017-11-01T23:26:39.976Z,5.00
2017-11-01T23:29:08.272Z,5.00
2017-11-01T23:31:35.818Z,5.00
2017-11-01T23:34:04.147Z,5.00
2017-11-01T23:36:31.682Z,5.00
2017-11-01T23:38:59.268Z,5.00
2017-11-01T23:41:26.836Z,5.10
2017-11-01T23:43:54.371Z,5.10
2017-11-01T23:46:21.904Z,5.10
2017-11-01T23:48:49.539Z,5.00
2017-11-01T23:51:17.076Z,5.00
2017-11-01T23:53:44.605Z,5.00
2017-11-01T23:56:12.157Z,5.00
2017-11-01T23:58:39.687Z,4.90
